Time;durP1;ratioP1;P1;durP2;ratioP2;P2;SDS_P1;SDS_P2;PMS_P1;PMS_P2;Temp;Humidity;BMP_temperature;BMP_pressure;BME280_temperature;BME280_humidity;BME280_pressure;Samples;Min_cycle;Max_cycle;Signal;HPM_P1;HPM_P2
2022/07/19 00:00:20;;;;;;;10.30;6.13;;;;;;;24.64;49.46;101730.22;6243467;23;20481;-66
2022/07/19 00:02:46;;;;;;;8.93;6.07;;;;;;;24.61;49.25;101728.03;6243850;23;20035;-66
2022/07/19 00:05:13;;;;;;;8.88;5.55;;;;;;;24.62;49.24;101720.34;6243362;23;20032;-66
2022/07/19 00:07:38;;;;;;;12.02;5.70;;;;;;;24.60;48.94;101717.84;6244453;23;20007;-66
2022/07/19 00:10:07;;;;;;;8.50;5.60;;;;;;;24.58;49.19;101714.47;6244468;23;20332;-66
2022/07/19 00:12:32;;;;;;;10.07;5.78;;;;;;;24.54;48.78;101713.47;6243119;23;20055;-66
2022/07/19 00:14:58;;;;;;;8.65;5.75;;;;;;;24.51;48.63;101704.75;6243645;23;20007;-66
2022/07/19 00:17:23;;;;;;;14.43;5.70;;;;;;;24.49;48.27;101716.47;6246789;23;20031;-67
2022/07/19 00:19:48;;;;;;;7.93;5.13;;;;;;;24.48;48.73;101709.09;6246746;23;20519;-66
2022/07/19 00:22:14;;;;;;;10.20;5.60;;;;;;;24.47;48.98;101713.09;6246432;23;20008;-66
2022/07/19 00:24:39;;;;;;;10.93;5.72;;;;;;;24.44;48.62;101708.94;6247303;23;20012;-67
2022/07/19 00:27:04;;;;;;;11.50;5.97;;;;;;;24.42;48.52;101710.41;6246349;23;20101;-66
2022/07/19 00:29:30;;;;;;;8.68;5.43;;;;;;;24.41;48.45;101701.06;6244788;23;20011;-66
2022/07/19 00:31:55;;;;;;;7.40;5.53;;;;;;;24.39;48.34;101699.69;6246277;23;20000;-66
2022/07/19 00:34:20;;;;;;;8.68;5.30;;;;;;;24.36;49.06;101700.31;6246040;23;20075;-66
2022/07/19 00:36:45;;;;;;;10.40;5.88;;;;;;;24.37;48.93;101702.84;6246426;22;20328;-66
2022/07/19 00:39:11;;;;;;;8.45;6.00;;;;;;;24.29;48.84;101697.09;6246526;23;20103;-66
2022/07/19 00:41:41;;;;;;;6.70;5.88;;;;;;;24.29;49.03;101697.97;6244962;23;20439;-66
2022/07/19 00:44:06;;;;;;;14.82;5.88;;;;;;;24.25;49.09;101692.09;6246946;23;20000;-67
2022/07/19 00:46:32;;;;;;;10.38;5.57;;;;;;;24.23;49.37;101697.25;6246363;23;20004;-66
2022/07/19 00:48:58;;;;;;;14.82;5.97;;;;;;;24.21;49.22;101693.91;6246301;23;20012;-66
2022/07/19 00:51:23;;;;;;;11.35;5.78;;;;;;;24.21;49.40;101691.09;6245741;23;20326;-66
2022/07/19 00:53:50;;;;;;;12.25;5.72;;;;;;;24.18;49.68;101699.41;6246432;23;20409;-66
2022/07/19 00:56:16;;;;;;;9.75;6.43;;;;;;;24.15;49.70;101694.38;6244441;23;20412;-66
2022/07/19 00:58:42;;;;;;;10.80;6.15;;;;;;;24.16;49.48;101705.38;6246589;23;20004;-66
2022/07/19 01:01:09;;;;;;;9.70;6.32;;;;;;;24.10;49.57;101701.03;6246829;23;20011;-66
2022/07/19 01:03:37;;;;;;;10.70;6.32;;;;;;;24.07;49.21;101698.84;6246064;23;20000;-66
2022/07/19 01:06:03;;;;;;;12.45;6.55;;;;;;;24.06;49.50;101694.31;6245857;23;20009;-66
2022/07/19 01:08:28;;;;;;;10.00;6.57;;;;;;;24.01;49.51;101694.44;6246667;23;20439;-66
2022/07/19 01:10:53;;;;;;;8.77;5.82;;;;;;;24.01;49.40;101691.59;6246016;23;20074;-66
2022/07/19 01:13:19;;;;;;;8.95;5.65;;;;;;;23.99;49.10;101696.78;6245620;23;20301;-66
2022/07/19 01:15:44;;;;;;;8.32;6.65;;;;;;;23.98;49.58;101698.78;6244602;23;20006;-66
2022/07/19 01:18:10;;;;;;;10.38;5.95;;;;;;;23.97;49.22;101693.41;6245617;23;20015;-66
2022/07/19 01:20:35;;;;;;;7.93;6.07;;;;;;;23.98;49.38;101689.44;6246726;23;20004;-66
2022/07/19 01:23:01;;;;;;;14.77;6.88;;;;;;;23.92;50.06;101697.22;6246744;23;20036;-66
2022/07/19 01:25:29;;;;;;;9.32;6.30;;;;;;;23.89;49.74;101691.38;6243196;23;20336;-65
2022/07/19 01:27:55;;;;;;;12.07;6.93;;;;;;;23.88;49.82;101684.84;6246408;23;20008;-66
2022/07/19 01:30:22;;;;;;;17.83;6.60;;;;;;;23.87;49.92;101688.03;6246635;23;20000;-66
2022/07/19 01:32:49;;;;;;;9.73;5.57;;;;;;;23.84;49.78;101695.16;6245219;23;20007;-66
2022/07/19 01:35:15;;;;;;;12.32;6.53;;;;;;;23.83;49.76;101695.50;6246046;23;20001;-65
2022/07/19 01:37:40;;;;;;;9.05;6.00;;;;;;;23.82;50.02;101700.34;6245149;22;20016;-66
2022/07/19 01:40:09;;;;;;;9.57;5.72;;;;;;;23.81;49.81;101703.47;6244966;23;20004;-65
2022/07/19 01:42:35;;;;;;;8.80;6.60;;;;;;;23.79;49.51;101691.66;6246110;23;20317;-66
2022/07/19 01:45:01;;;;;;;9.38;6.68;;;;;;;23.75;49.59;101692.28;6245280;23;20012;-66
2022/07/19 01:47:26;;;;;;;10.68;6.90;;;;;;;23.72;50.01;101687.25;6246506;23;20000;-66
2022/07/19 01:49:52;;;;;;;8.43;6.60;;;;;;;23.72;49.70;101684.41;6245921;23;20429;-66
2022/07/19 01:52:18;;;;;;;10.50;6.50;;;;;;;23.65;49.95;101688.81;6244132;23;20016;-66
2022/07/19 01:54:43;;;;;;;9.45;6.60;;;;;;;23.66;50.01;101685.72;6246455;23;20004;-66
2022/07/19 01:57:09;;;;;;;8.27;7.03;;;;;;;23.63;49.75;101694.00;6246476;23;20347;-66
2022/07/19 01:59:38;;;;;;;10.20;6.35;;;;;;;23.64;50.15;101687.16;6245107;23;20004;-65
2022/07/19 02:02:04;;;;;;;9.93;6.47;;;;;;;23.58;50.00;101688.44;6245814;23;20004;-66
2022/07/19 02:04:30;;;;;;;11.85;7.20;;;;;;;23.56;50.17;101693.59;6246370;23;20006;-66
2022/07/19 02:06:55;;;;;;;11.07;6.82;;;;;;;23.54;50.25;101685.44;6244644;23;20071;-65
2022/07/19 02:09:20;;;;;;;14.88;6.82;;;;;;;23.53;50.41;101687.41;6245831;23;20356;-66
2022/07/19 02:11:46;;;;;;;11.43;7.20;;;;;;;23.50;50.18;101684.38;6245175;23;20324;-65
2022/07/19 02:14:11;;;;;;;11.40;6.93;;;;;;;23.43;50.67;101686.84;6243485;23;20075;-66
2022/07/19 02:16:38;;;;;;;8.82;6.75;;;;;;;23.43;50.30;101689.66;6246033;23;20004;-66
2022/07/19 02:19:05;;;;;;;9.20;6.22;;;;;;;23.44;50.31;101685.66;6245838;23;20046;-66
2022/07/19 02:21:31;;;;;;;8.02;7.00;;;;;;;23.43;50.13;101684.00;6243967;23;20000;-66
2022/07/19 02:23:56;;;;;;;10.95;7.07;;;;;;;23.35;50.16;101682.75;6245695;23;20046;-66
2022/07/19 02:26:21;;;;;;;10.65;7.50;;;;;;;23.33;50.41;101672.91;6243562;23;20000;-65
2022/07/19 02:28:46;;;;;;;10.20;6.93;;;;;;;23.33;50.19;101670.06;6245095;23;20005;-66
2022/07/19 02:31:12;;;;;;;10.73;6.80;;;;;;;23.31;50.39;101666.72;6246144;23;20000;-66
2022/07/19 02:33:37;;;;;;;10.50;7.57;;;;;;;23.24;50.50;101668.00;6245373;23;20012;-66
2022/07/19 02:36:03;;;;;;;11.43;7.65;;;;;;;23.25;50.46;101661.16;6243360;23;20066;-66
2022/07/19 02:38:29;;;;;;;12.43;7.72;;;;;;;23.19;50.18;101659.63;6245010;22;20016;-66
2022/07/19 02:40:54;;;;;;;8.55;6.70;;;;;;;23.21;50.62;101665.78;6244126;23;20012;-66
2022/07/19 02:43:26;;;;;;;10.73;7.28;;;;;;;23.17;50.39;101663.91;6244943;23;20028;-66
2022/07/19 02:45:52;;;;;;;8.55;7.10;;;;;;;23.19;50.32;101668.13;6245035;23;20474;-66
2022/07/19 02:48:17;;;;;;;15.18;7.40;;;;;;;23.16;50.71;101662.25;6244524;23;20048;-66
2022/07/19 02:50:43;;;;;;;11.63;6.70;;;;;;;23.18;50.34;101665.59;6245658;23;20004;-66
2022/07/19 02:53:08;;;;;;;12.35;7.63;;;;;;;23.15;50.12;101660.59;6245414;23;20407;-66
2022/07/19 02:55:34;;;;;;;9.32;7.82;;;;;;;23.14;50.42;101671.06;6243338;23;20019;-66
2022/07/19 02:57:59;;;;;;;9.45;6.78;;;;;;;23.14;50.53;101659.72;6245758;23;20038;-66
2022/07/19 03:00:25;;;;;;;8.73;6.65;;;;;;;23.12;50.24;101656.38;6245251;23;20416;-66
2022/07/19 03:02:53;;;;;;;12.18;7.45;;;;;;;23.10;49.86;101650.19;6242986;23;20408;-66
2022/07/19 03:05:19;;;;;;;10.13;7.80;;;;;;;23.07;50.39;101665.00;6245198;23;20031;-65
2022/07/19 03:07:45;;;;;;;11.82;8.18;;;;;;;23.04;50.51;101657.16;6244272;23;20416;-65
2022/07/19 03:10:11;;;;;;;8.73;7.78;;;;;;;22.96;50.77;101653.06;6244352;23;20000;-66
2022/07/19 03:12:36;;;;;;;11.55;7.90;;;;;;;22.97;50.38;101648.25;6244455;23;20012;-65
2022/07/19 03:15:02;;;;;;;11.20;8.55;;;;;;;22.96;50.65;101649.41;6244914;23;20084;-65
2022/07/19 03:17:27;;;;;;;11.32;7.47;;;;;;;22.92;50.69;101646.38;6244092;23;20004;-66
2022/07/19 03:19:52;;;;;;;11.20;7.50;;;;;;;22.91;51.04;101641.00;6244226;23;20009;-66
2022/07/19 03:22:18;;;;;;;9.65;7.15;;;;;;;22.91;51.04;101644.69;6245610;23;20026;-66
2022/07/19 03:24:43;;;;;;;11.75;7.82;;;;;;;22.89;51.13;101646.13;6244125;23;20435;-66
2022/07/19 03:27:09;;;;;;;13.10;7.80;;;;;;;22.88;50.93;101642.47;6245203;23;20010;-66
2022/07/19 03:29:34;;;;;;;15.63;8.77;;;;;;;22.82;51.07;101632.41;6245629;23;20015;-66
2022/07/19 03:31:59;;;;;;;12.95;7.93;;;;;;;22.84;51.09;101637.75;6244148;23;20035;-66
2022/07/19 03:34:26;;;;;;;13.13;9.07;;;;;;;22.79;51.12;101642.38;6245578;23;20031;-66
2022/07/19 03:36:52;;;;;;;13.98;8.05;;;;;;;22.77;51.16;101639.00;6243345;22;20332;-66
2022/07/19 03:39:17;;;;;;;16.75;9.20;;;;;;;22.76;51.40;101642.16;6244516;23;20019;-66
2022/07/19 03:41:42;;;;;;;10.32;8.63;;;;;;;22.76;51.10;101645.00;6244934;23;20008;-66
2022/07/19 03:44:07;;;;;;;15.85;9.23;;;;;;;22.75;51.09;101643.31;6242628;23;20012;-66
2022/07/19 03:46:35;;;;;;;14.13;8.38;;;;;;;22.72;51.11;101636.31;6245163;23;20004;-65
2022/07/19 03:49:01;;;;;;;14.50;7.82;;;;;;;22.75;51.23;101630.03;6245429;23;20012;-65
2022/07/19 03:51:29;;;;;;;11.20;8.80;;;;;;;22.70;51.34;101634.94;6246050;23;20865;-66
2022/07/19 03:53:54;;;;;;;14.00;9.63;;;;;;;22.66;51.49;101636.72;6245900;23;20092;-65
2022/07/19 03:56:20;;;;;;;14.73;9.05;;;;;;;22.66;51.62;101639.56;6246175;23;20024;-66
2022/07/19 03:58:47;;;;;;;13.10;8.48;;;;;;;22.65;51.50;101640.72;6243845;23;20447;-66
2022/07/19 04:01:12;;;;;;;15.23;9.50;;;;;;;22.63;51.50;101645.84;6246632;23;20000;-65
2022/07/19 04:03:38;;;;;;;15.23;9.07;;;;;;;22.58;51.37;101646.78;6246985;23;20015;-65
2022/07/19 04:06:05;;;;;;;15.15;9.35;;;;;;;22.60;51.45;101640.81;6246526;23;20050;-66
2022/07/19 04:08:31;;;;;;;13.00;8.82;;;;;;;22.59;51.76;101644.78;6246526;23;20041;-66
2022/07/19 04:10:56;;;;;;;14.75;9.65;;;;;;;22.57;51.70;101641.47;6245980;23;20000;-65
2022/07/19 04:13:21;;;;;;;27.13;10.50;;;;;;;22.55;51.84;101645.41;6246439;23;20333;-65
2022/07/19 04:15:47;;;;;;;18.90;8.88;;;;;;;22.57;51.59;101636.63;6246314;23;20011;-65
2022/07/19 04:18:12;;;;;;;18.77;9.57;;;;;;;22.58;51.73;101632.66;6246516;23;20409;-66
2022/07/19 04:20:38;;;;;;;22.17;10.15;;;;;;;22.54;51.76;101635.25;6245602;23;20018;-66
2022/07/19 04:23:03;;;;;;;20.65;10.13;;;;;;;22.58;51.63;101638.31;6245975;23;20075;-66
2022/07/19 04:25:28;;;;;;;23.67;10.63;;;;;;;22.54;52.26;101637.25;6247352;23;20054;-65
2022/07/19 04:27:56;;;;;;;20.70;10.18;;;;;;;22.52;52.26;101645.25;6245666;23;20004;-65
2022/07/19 04:30:22;;;;;;;20.17;10.82;;;;;;;22.53;52.11;101635.59;6246656;23;20043;-65
2022/07/19 04:32:47;;;;;;;26.60;10.15;;;;;;;22.53;52.06;101642.09;6245409;23;20004;-65
2022/07/19 04:35:12;;;;;;;24.45;11.75;;;;;;;22.52;52.06;101643.25;6245156;23;20007;-66
2022/07/19 04:37:38;;;;;;;17.20;10.10;;;;;;;22.55;52.18;101636.94;6246790;22;20012;-66
2022/07/19 04:40:04;;;;;;;27.10;11.32;;;;;;;22.50;52.14;101641.88;6247220;23;20037;-65
2022/07/19 04:42:29;;;;;;;17.77;11.73;;;;;;;22.52;52.23;101648.06;6245651;23;20000;-65
2022/07/19 04:44:55;;;;;;;20.70;11.55;;;;;;;22.55;52.19;101648.25;6246194;23;20004;-66
2022/07/19 04:47:20;;;;;;;22.65;11.88;;;;;;;22.57;51.94;101644.28;6246989;23;20321;-65
2022/07/19 04:49:45;;;;;;;20.23;12.88;;;;;;;22.54;51.89;101646.56;6245462;23;20332;-66
2022/07/19 04:52:10;;;;;;;16.38;11.20;;;;;;;22.54;52.12;101642.91;6245778;23;20000;-66
2022/07/19 04:54:36;;;;;;;19.67;12.60;;;;;;;22.57;52.35;101650.78;6245504;23;20004;-66
2022/07/19 04:57:01;;;;;;;17.58;12.90;;;;;;;22.56;52.20;101646.28;6246174;23;20018;-66
2022/07/19 04:59:29;;;;;;;18.38;13.13;;;;;;;22.53;52.45;101647.75;6246246;23;20043;-66
2022/07/19 05:01:54;;;;;;;18.67;13.23;;;;;;;22.54;52.10;101646.56;6242446;23;20000;-66
2022/07/19 05:04:20;;;;;;;16.48;13.88;;;;;;;22.57;52.41;101638.63;6246950;23;20312;-66
2022/07/19 05:06:45;;;;;;;20.42;13.00;;;;;;;22.59;52.45;101639.13;6246158;23;20071;-66
2022/07/19 05:09:13;;;;;;;20.70;12.40;;;;;;;22.62;52.37;101642.16;6245980;23;20076;-66
2022/07/19 05:11:38;;;;;;;17.30;12.40;;;;;;;22.62;52.57;101636.50;6244976;23;20039;-66
2022/07/19 05:14:04;;;;;;;17.85;12.85;;;;;;;22.64;52.86;101634.22;6246632;23;20004;-66
2022/07/19 05:16:29;;;;;;;19.02;12.77;;;;;;;22.67;52.74;101633.56;6244217;23;20297;-66
2022/07/19 05:18:54;;;;;;;18.77;13.43;;;;;;;22.65;52.89;101627.41;6245897;23;20059;-66
2022/07/19 05:21:20;;;;;;;21.02;13.40;;;;;;;22.66;52.83;101639.56;6245339;23;20010;-66
2022/07/19 05:23:45;;;;;;;13.40;12.02;;;;;;;22.71;52.75;101628.94;6244087;23;20031;-66
2022/07/19 05:26:10;;;;;;;15.70;12.57;;;;;;;22.71;52.48;101633.78;6244687;23;20023;-66
2022/07/19 05:28:36;;;;;;;22.30;13.93;;;;;;;22.70;52.21;101638.59;6245424;23;20007;-66
2022/07/19 05:31:02;;;;;;;21.15;14.73;;;;;;;22.71;52.29;101634.59;6243892;23;20107;-66
2022/07/19 05:33:28;;;;;;;13.85;10.93;;;;;;;22.79;52.46;101641.50;6246089;23;20008;-66
2022/07/19 05:35:56;;;;;;;20.88;13.85;;;;;;;22.77;52.29;101644.69;6245991;23;20423;-65
2022/07/19 05:38:21;;;;;;;18.38;13.88;;;;;;;22.78;52.06;101646.34;6242917;22;20526;-65
2022/07/19 05:40:47;;;;;;;20.33;14.93;;;;;;;22.78;51.67;101657.66;6244015;23;20004;-65
2022/07/19 05:43:16;;;;;;;20.92;13.43;;;;;;;22.86;52.26;101658.09;6243830;23;20006;-65
2022/07/19 05:45:42;;;;;;;23.42;13.00;;;;;;;22.90;52.07;101657.13;6245149;23;20008;-65
2022/07/19 05:48:10;;;;;;;16.15;12.70;;;;;;;22.93;52.27;101659.34;6244656;23;20004;-66
2022/07/19 05:50:35;;;;;;;20.45;12.20;;;;;;;22.97;51.85;101659.56;6244685;23;20007;-66
2022/07/19 05:53:00;;;;;;;18.05;12.48;;;;;;;23.03;51.90;101658.31;6244743;23;20008;-65
2022/07/19 05:55:26;;;;;;;17.90;12.60;;;;;;;23.08;51.65;101666.69;6245700;23;20000;-65
2022/07/19 05:57:51;;;;;;;20.08;10.50;;;;;;;23.13;51.67;101655.22;6242542;23;20079;-65
2022/07/19 06:00:16;;;;;;;13.90;11.02;;;;;;;23.16;51.16;101660.25;6243372;23;20003;-65
2022/07/19 06:02:42;;;;;;;13.05;10.27;;;;;;;23.19;51.17;101653.97;6243899;23;20007;-65
2022/07/19 06:05:07;;;;;;;14.05;10.80;;;;;;;23.23;51.33;101655.00;6245125;23;20710;-66
2022/07/19 06:07:33;;;;;;;19.92;11.40;;;;;;;23.28;51.39;101651.19;6244665;23;20009;-66
2022/07/19 06:09:58;;;;;;;15.10;9.50;;;;;;;23.34;51.08;101654.72;6246302;23;20030;-65
2022/07/19 06:12:23;;;;;;;20.30;13.90;;;;;;;23.35;50.93;101659.25;6242502;23;20004;-66
2022/07/19 06:14:49;;;;;;;12.05;10.43;;;;;;;23.41;50.69;101650.31;6245966;23;20423;-66
2022/07/19 06:17:14;;;;;;;12.43;9.75;;;;;;;23.45;50.83;101654.16;6245554;23;20502;-65
2022/07/19 06:19:39;;;;;;;16.35;12.07;;;;;;;23.50;50.17;101662.56;6244395;23;20004;-65
2022/07/19 06:22:05;;;;;;;18.35;13.45;;;;;;;23.56;50.10;101656.75;6246237;23;20428;-66
2022/07/19 06:24:30;;;;;;;15.10;11.77;;;;;;;23.62;50.27;101656.31;6245434;23;20038;-65
2022/07/19 06:26:55;;;;;;;19.88;12.35;;;;;;;23.68;49.45;101651.38;6244481;23;20328;-66
2022/07/19 06:29:21;;;;;;;17.05;9.75;;;;;;;23.72;49.88;101655.22;6244332;23;20001;-65
2022/07/19 06:31:46;;;;;;;15.23;11.13;;;;;;;23.77;48.64;101657.94;6244408;23;20004;-66
2022/07/19 06:34:11;;;;;;;17.83;10.88;;;;;;;23.80;49.20;101657.28;6244054;23;20050;-67
2022/07/19 06:36:36;;;;;;;18.98;11.45;;;;;;;23.88;49.40;101650.00;6243468;23;20454;-65
2022/07/19 06:39:02;;;;;;;18.73;10.85;;;;;;;23.96;47.84;101657.72;6244543;22;20020;-65
2022/07/19 06:41:27;;;;;;;16.33;9.75;;;;;;;24.02;49.08;101647.94;6245009;23;20332;-65
2022/07/19 06:43:52;;;;;;;17.80;9.52;;;;;;;24.09;48.26;101653.97;6244116;23;20442;-66
2022/07/19 06:46:18;;;;;;;14.35;8.57;;;;;;;24.15;47.59;101655.50;6245877;23;20333;-66
2022/07/19 06:48:43;;;;;;;12.60;8.30;;;;;;;24.20;47.43;101652.50;6244349;23;20359;-66
2022/07/19 06:51:08;;;;;;;15.25;8.70;;;;;;;24.30;47.02;101653.41;6244764;23;20035;-65
2022/07/19 06:53:34;;;;;;;14.82;7.97;;;;;;;24.35;46.90;101653.25;6242799;23;20344;-65
2022/07/19 06:56:00;;;;;;;10.75;7.40;;;;;;;24.43;46.54;101650.47;6242106;23;20015;-65
2022/07/19 06:59:23;;;;;;;16.10;7.57;;;;;;;24.43;47.01;101639.13;6237906;23;20007;-69
2022/07/19 07:05:43;;;;;;;11.82;6.25;;;;;;;24.59;46.98;101639.50;6241754;23;20035;-69
2022/07/19 07:15:50;;;;;;;14.57;6.28;;;;;;;24.94;46.13;101653.78;6090382;23;20362;-69
2022/07/19 07:22:33;;;;;;;14.98;5.90;;;;;;;25.21;45.61;101647.84;5949653;24;20023;-69
2022/07/19 07:26:01;;;;;;;;;;;;;;;;;;;;;
2022/07/19 07:32:42;;;;;;;12.57;5.50;;;;;;;25.41;44.58;101631.31;5905846;24;20021;-71
2022/07/19 07:35:57;;;;;;;14.75;4.97;;;;;;;25.63;44.33;101635.97;5908731;24;20017;-69
2022/07/19 07:42:33;;;;;;;11.55;4.75;;;;;;;25.83;43.75;101634.47;5949875;24;20095;-69
2022/07/19 07:45:53;;;;;;;9.85;4.43;;;;;;;25.94;43.69;101632.94;5962170;23;20489;-69
2022/07/19 07:49:06;;;;;;;12.02;4.88;;;;;;;26.06;43.55;101638.75;6078546;23;20024;-69
2022/07/19 07:52:11;;;;;;;;;;;;;;;;;;;;;
2022/07/19 07:58:37;;;;;;;;;;;;;;;;;;;;;
2022/07/19 08:01:54;;;;;;;12.55;4.38;;;;;;;26.48;41.53;101613.31;6113019;23;20393;-68
2022/07/19 08:04:56;;;;;;;8.60;3.90;;;;;;;26.52;40.08;101622.84;6046316;23;20022;-68
2022/07/19 08:18:22;;;;;;;;;;;;;;;;;;;;;
2022/07/19 08:21:34;;;;;;;11.10;3.70;;;;;;;27.08;39.35;101597.84;6217386;23;20072;-65
2022/07/19 08:24:54;;;;;;;;;;;;;;;;;;;;;
2022/07/19 08:34:53;;;;;;;;;;;;;;;;;;;;;
2022/07/19 08:37:51;;;;;;;11.27;3.83;;;;;;;27.90;35.96;101597.25;6177754;23;20082;-65
2022/07/19 08:40:32;;;;;;;10.63;3.50;;;;;;;28.02;35.80;101593.59;6241389;22;20016;-66
2022/07/19 08:43:45;;;;;;;8.32;4.00;;;;;;;28.06;36.80;101601.13;6240860;23;20372;-67
2022/07/19 08:46:54;;;;;;;14.10;4.20;;;;;;;28.12;37.32;101596.81;6226911;23;20004;-65
2022/07/19 08:50:19;;;;;;;10.80;3.85;;;;;;;28.20;36.90;101597.06;6236059;23;20284;-67
2022/07/19 08:53:16;;;;;;;7.00;3.75;;;;;;;28.47;35.21;101584.97;6236276;23;20340;-66
2022/07/19 09:03:12;;;;;;;11.10;3.88;;;;;;;28.65;36.57;101584.72;6165046;23;20074;-66
2022/07/19 09:10:20;;;;;;;6.78;3.53;;;;;;;29.00;36.36;101580.16;6243015;23;20026;-66
2022/07/19 09:13:45;;;;;;;;;;;;;;;;;;;;;
2022/07/19 09:20:23;;;;;;;7.70;3.42;;;;;;;29.29;35.14;101572.44;6122856;23;20013;-66
2022/07/19 09:38:01;;;;;;;;;;;;;;;;;;;;;
2022/07/19 09:45:06;;;;;;;;;;;;;;;;;;;;;
2022/07/19 09:51:43;;;;;;;5.78;3.63;;;;;;;30.01;33.02;101569.56;6061360;23;20014;-66
2022/07/19 09:54:45;;;;;;;8.68;3.97;;;;;;;30.04;32.94;101563.94;6149807;23;20009;-65
2022/07/19 09:57:41;;;;;;;7.60;4.30;;;;;;;30.15;33.71;101552.75;6125166;23;20397;-66
2022/07/19 10:04:02;;;;;;;5.32;3.40;;;;;;;30.32;33.04;101555.25;6142501;23;20053;-64
2022/07/19 10:06:57;;;;;;;8.40;3.47;;;;;;;30.47;31.93;101552.75;6144768;23;20028;-67
2022/07/19 10:10:30;;;;;;;;;;;;;;;;;;;;;
2022/07/19 10:30:46;;;;;;;;;;;;;;;;;;;;;
2022/07/19 10:37:44;;;;;;;;;;;;;;;;;;;;;
2022/07/19 10:41:10;;;;;;;9.95;3.40;;;;;;;31.07;29.11;101524.66;5980499;23;20155;-62
2022/07/19 11:32:32;;;;;;;;;;;;;;;;;;;;;
2022/07/19 14:54:33;;;;;;;4.53;2.40;;;;;;;33.14;23.93;101236.91;6086683;23;20473;-67
2022/07/19 16:42:26;;;;;;;;;;;;;;;;;;;;;
2022/07/19 17:04:28;;;;;;;6.22;2.30;;;;;;;32.77;23.11;101079.66;6005871;23;20090;-70
2022/07/19 17:15:58;;;;;;;;;;;;;;;;;;;;;
2022/07/19 17:18:57;;;;;;;;;;;;;;;;;;;;;
2022/07/19 17:25:28;;;;;;;6.85;3.00;;;;;;;32.70;20.69;101074.72;6077806;23;20017;-70
2022/07/19 17:28:06;;;;;;;4.97;2.33;;;;;;;32.68;20.17;101077.16;6076772;23;20005;-70
2022/07/19 17:38:20;;;;;;;3.50;2.10;;;;;;;32.54;21.41;101067.59;6150808;23;20104;-70
2022/07/19 17:40:46;;;;;;;4.75;2.50;;;;;;;32.58;22.86;101068.44;6064043;23;20011;-70
2022/07/19 17:54:24;;;;;;;4.32;2.58;;;;;;;32.40;24.56;101053.94;6216993;22;20019;-72
2022/07/19 18:01:18;;;;;;;;;;;;;;;;;;;;;
2022/07/19 18:11:10;;;;;;;4.53;2.40;;;;;;;32.22;23.12;101059.50;6112554;22;20016;-72
2022/07/19 18:14:50;;;;;;;4.45;2.80;;;;;;;32.20;23.34;101059.09;6271932;22;20069;-71
2022/07/19 18:21:44;;;;;;;8.07;3.10;;;;;;;32.16;23.39;101052.47;6136110;23;20021;-71
2022/07/19 18:24:42;;;;;;;8.45;3.13;;;;;;;32.12;23.34;101052.44;6096059;23;20076;-71
2022/07/19 18:31:04;;;;;;;3.42;2.50;;;;;;;32.01;24.98;101052.34;6127924;23;20485;-69
2022/07/19 18:34:20;;;;;;;10.15;3.13;;;;;;;32.00;24.75;101055.63;6243736;23;20008;-70
2022/07/19 18:41:38;;;;;;;3.10;2.50;;;;;;;31.93;29.25;101056.38;6106467;23;20010;-69
2022/07/19 18:45:01;;;;;;;5.00;2.88;;;;;;;31.91;25.58;101057.97;6091062;23;20041;-68
2022/07/19 19:09:10;;;;;;;8.50;3.35;;;;;;;31.56;25.38;101058.38;6018664;23;20379;-66
2022/07/19 19:27:02;;;;;;;6.25;2.92;;;;;;;31.36;25.90;101067.19;5921052;24;20469;-68
2022/07/19 20:04:38;;;;;;;;;;;;;;;;;;;;;
2022/07/19 22:02:25;;;;;;;;;;;;;;;;;;;;;
